createdAt,value
2018-06-29T00:01:11.089Z,4.03
2018-06-29T00:03:40.437Z,6.80
2018-06-29T00:06:09.717Z,5.90
2018-06-29T00:08:38.003Z,5.23
2018-06-29T00:11:06.509Z,4.00
2018-06-29T00:13:34.783Z,5.20
2018-06-29T00:16:03.024Z,4.20
2018-06-29T00:18:31.299Z,3.83
2018-06-29T00:20:59.708Z,3.27
2018-06-29T00:23:28.034Z,4.87
2018-06-29T00:25:56.375Z,7.37
2018-06-29T00:28:25.609Z,5.27
2018-06-29T00:30:53.894Z,3.87
2018-06-29T00:33:22.147Z,16.73
2018-06-29T00:35:50.413Z,9.70
2018-06-29T00:38:18.688Z,7.77
2018-06-29T00:40:47.059Z,7.50
2018-06-29T00:43:15.333Z,9.30
2018-06-29T00:45:43.621Z,5.70
2018-06-29T00:48:11.870Z,4.23
2018-06-29T00:50:40.159Z,4.83
2018-06-29T00:53:08.436Z,3.70
2018-06-29T00:55:36.789Z,4.60
2018-06-29T00:58:05.469Z,4.00
2018-06-29T01:00:33.757Z,4.27
2018-06-29T01:03:02.026Z,5.73
2018-06-29T01:05:30.308Z,4.00
2018-06-29T01:07:58.588Z,7.10
2018-06-29T01:10:26.884Z,4.43
2018-06-29T01:12:55.177Z,7.93
2018-06-29T01:15:23.473Z,6.20
2018-06-29T01:17:51.732Z,3.97
2018-06-29T01:20:20.006Z,7.73
2018-06-29T01:22:48.303Z,5.30
2018-06-29T01:25:16.577Z,5.40
2018-06-29T01:27:44.857Z,6.00
2018-06-29T01:30:13.149Z,5.00
2018-06-29T01:32:41.413Z,6.50
2018-06-29T01:35:09.805Z,6.90
2018-06-29T01:37:38.149Z,8.30
2018-06-29T01:40:06.502Z,8.30
2018-06-29T01:42:34.773Z,9.07
2018-06-29T01:52:02.837Z,6.40
2018-06-29T01:54:32.234Z,9.23
2018-06-29T01:57:00.566Z,6.17
2018-06-29T01:59:28.817Z,6.70
2018-06-29T02:01:57.094Z,6.47
2018-06-29T02:04:25.411Z,5.60
2018-06-29T02:06:54.672Z,4.07
2018-06-29T02:09:23.157Z,4.73
2018-06-29T02:11:51.417Z,11.20
2018-06-29T02:14:19.709Z,8.03
2018-06-29T02:16:47.960Z,5.10
2018-06-29T02:19:16.242Z,5.43
2018-06-29T02:21:44.637Z,5.67
2018-06-29T02:24:13.008Z,6.30
2018-06-29T02:26:41.293Z,5.60
2018-06-29T02:29:09.568Z,5.57
2018-06-29T02:31:37.815Z,6.00
2018-06-29T02:34:06.170Z,8.80
2018-06-29T02:36:34.350Z,6.00
2018-06-29T02:39:02.650Z,5.33
2018-06-29T02:41:30.902Z,6.10
2018-06-29T02:43:59.181Z,7.37
2018-06-29T02:46:27.440Z,6.30
2018-06-29T02:48:56.781Z,5.50
2018-06-29T02:51:25.047Z,7.50
2018-06-29T02:53:53.371Z,5.40
2018-06-29T02:56:21.608Z,7.90
2018-06-29T02:58:49.875Z,4.83
2018-06-29T03:01:18.192Z,5.30
2018-06-29T03:03:46.441Z,9.17
2018-06-29T03:06:14.884Z,5.13
2018-06-29T03:08:43.153Z,7.23
2018-06-29T03:11:11.469Z,6.27
2018-06-29T03:13:40.754Z,7.30
2018-06-29T03:16:10.103Z,12.93
2018-06-29T03:18:38.421Z,6.27
2018-06-29T03:21:06.701Z,4.37
2018-06-29T03:23:34.947Z,7.03
2018-06-29T03:26:03.247Z,9.27
2018-06-29T03:28:31.494Z,7.30
2018-06-29T03:30:59.787Z,6.20
2018-06-29T03:33:28.050Z,4.53
2018-06-29T03:35:56.336Z,7.40
2018-06-29T03:38:24.596Z,6.40
2018-06-29T03:40:52.886Z,5.60
2018-06-29T03:43:21.137Z,10.27
2018-06-29T03:45:49.413Z,5.03
2018-06-29T03:48:17.664Z,6.20
2018-06-29T03:50:45.913Z,5.37
2018-06-29T03:53:14.222Z,6.20
2018-06-29T03:55:43.494Z,4.70
2018-06-29T03:58:11.785Z,4.77
2018-06-29T04:00:40.033Z,4.80
2018-06-29T04:03:08.293Z,7.40
2018-06-29T04:05:36.792Z,5.33
2018-06-29T04:08:05.201Z,5.23
2018-06-29T04:10:33.445Z,7.20
2018-06-29T04:13:01.753Z,7.53
2018-06-29T04:15:29.998Z,6.03
2018-06-29T04:17:58.280Z,18.43
2018-06-29T04:20:26.529Z,8.80
2018-06-29T04:22:55.052Z,7.20
2018-06-29T04:25:23.314Z,6.23
2018-06-29T04:27:51.716Z,6.43
2018-06-29T04:30:20.077Z,8.00
2018-06-29T04:32:48.470Z,11.27
2018-06-29T04:35:17.655Z,10.73
2018-06-29T04:37:45.925Z,5.33
2018-06-29T04:40:14.217Z,6.83
2018-06-29T04:42:42.468Z,6.00
2018-06-29T04:45:12.838Z,9.98
2018-06-29T04:47:42.117Z,5.77
2018-06-29T04:50:10.417Z,10.10
2018-06-29T04:52:38.747Z,7.37
2018-06-29T04:55:07.081Z,9.70
2018-06-29T04:57:35.369Z,9.67
2018-06-29T05:00:03.701Z,6.00
2018-06-29T05:02:32.994Z,6.67
2018-06-29T05:05:01.279Z,5.40
2018-06-29T05:07:29.537Z,8.37
2018-06-29T05:09:57.822Z,9.43
2018-06-29T05:12:26.437Z,11.30
2018-06-29T05:14:54.713Z,6.57
2018-06-29T05:17:22.988Z,7.13
2018-06-29T05:19:51.386Z,6.00
2018-06-29T05:22:19.644Z,8.40
2018-06-29T05:24:47.925Z,9.07
2018-06-29T05:27:16.185Z,8.73
2018-06-29T05:29:44.468Z,8.30
2018-06-29T05:32:12.716Z,6.37
2018-06-29T05:34:41.004Z,7.23
2018-06-29T05:37:09.285Z,9.73
2018-06-29T05:39:37.529Z,6.63
2018-06-29T05:42:06.909Z,11.00
2018-06-29T05:44:36.209Z,9.60
2018-06-29T05:47:04.913Z,9.03
2018-06-29T05:49:33.101Z,8.23
2018-06-29T05:52:01.389Z,6.87
2018-06-29T05:54:29.668Z,5.90
2018-06-29T05:56:58.976Z,8.37
2018-06-29T05:59:27.263Z,8.43
2018-06-29T06:01:55.647Z,17.13
2018-06-29T06:04:23.849Z,8.07
2018-06-29T06:06:52.161Z,8.90
2018-06-29T06:09:20.430Z,8.57
2018-06-29T06:11:48.718Z,6.43
2018-06-29T06:14:16.975Z,7.20
2018-06-29T06:16:45.287Z,9.50
2018-06-29T06:19:24.852Z,14.90
2018-06-29T06:21:53.137Z,12.00
2018-06-29T06:24:21.397Z,11.37
2018-06-29T06:26:49.697Z,7.60
2018-06-29T06:29:18.017Z,10.03
2018-06-29T06:31:46.263Z,6.80
2018-06-29T06:34:14.532Z,10.73
2018-06-29T06:36:42.794Z,8.37
2018-06-29T06:39:12.293Z,9.87
2018-06-29T06:41:41.123Z,6.87
2018-06-29T06:44:09.353Z,6.40
2018-06-29T06:46:37.633Z,8.73
2018-06-29T06:49:07.933Z,7.60
2018-06-29T06:51:36.260Z,12.70
2018-06-29T06:54:04.555Z,12.27
2018-06-29T06:56:32.917Z,10.70
2018-06-29T06:59:01.233Z,12.43
2018-06-29T07:01:29.514Z,11.73
2018-06-29T07:03:57.781Z,12.33
2018-06-29T07:06:26.040Z,14.47
2018-06-29T07:08:54.320Z,14.67
2018-06-29T07:11:22.565Z,9.30
2018-06-29T07:13:50.852Z,9.70
2018-06-29T07:16:19.120Z,8.40
2018-06-29T07:18:47.365Z,7.03
2018-06-29T07:21:15.677Z,10.37
2018-06-29T07:23:43.913Z,11.10
2018-06-29T07:26:12.229Z,8.90
2018-06-29T07:28:40.617Z,13.30
2018-06-29T07:31:08.877Z,9.30
2018-06-29T07:33:37.157Z,9.30
2018-06-29T07:36:05.609Z,8.43
2018-06-29T07:38:33.907Z,8.33
2018-06-29T07:42:31.372Z,13.80
2018-06-29T07:45:00.686Z,10.90
2018-06-29T07:47:29.125Z,9.20
2018-06-29T07:49:57.417Z,10.30
2018-06-29T07:52:25.720Z,11.00
2018-06-29T07:54:54.145Z,7.47
2018-06-29T07:57:23.057Z,9.40
2018-06-29T07:59:51.312Z,11.53
2018-06-29T08:02:19.595Z,11.77
2018-06-29T08:04:47.841Z,13.63
2018-06-29T08:07:16.136Z,15.57
2018-06-29T08:09:44.397Z,17.53
2018-06-29T08:12:12.685Z,10.50
2018-06-29T08:14:41.032Z,14.53
2018-06-29T08:17:09.359Z,9.80
2018-06-29T08:19:37.675Z,11.67
2018-06-29T08:22:06.390Z,17.23
2018-06-29T08:24:35.061Z,9.93
2018-06-29T08:27:04.406Z,12.97
2018-06-29T08:29:32.685Z,12.40
2018-06-29T08:32:02.985Z,11.97
2018-06-29T08:34:31.245Z,30.20
2018-06-29T08:36:59.548Z,10.17
2018-06-29T08:39:27.802Z,14.67
2018-06-29T08:41:57.077Z,12.73
2018-06-29T08:44:25.371Z,9.63
2018-06-29T08:46:53.725Z,18.37
2018-06-29T08:49:21.937Z,11.63
2018-06-29T08:51:50.189Z,12.17
2018-06-29T08:54:18.488Z,10.07
2018-06-29T08:56:46.762Z,16.50
2018-06-29T08:59:15.069Z,21.73
2018-06-29T09:01:43.312Z,18.10
2018-06-29T09:04:11.596Z,13.10
2018-06-29T09:06:39.969Z,9.30
2018-06-29T09:09:09.301Z,9.50
2018-06-29T09:11:37.759Z,12.47
2018-06-29T09:14:06.147Z,13.53
2018-06-29T09:16:34.405Z,16.80
2018-06-29T09:19:04.840Z,23.23
2018-06-29T09:21:33.049Z,13.67
2018-06-29T09:24:01.325Z,14.57
2018-06-29T09:26:29.647Z,13.40
2018-06-29T09:28:57.917Z,21.00
2018-06-29T09:31:26.189Z,10.83
2018-06-29T09:33:54.478Z,19.43
2018-06-29T09:36:22.804Z,12.97
2018-06-29T09:38:51.005Z,11.90
2018-06-29T09:41:19.285Z,11.40
2018-06-29T09:43:47.701Z,14.83
2018-06-29T09:46:15.986Z,13.80
2018-06-29T09:48:44.244Z,15.03
2018-06-29T09:51:12.519Z,9.27
2018-06-29T09:53:40.770Z,18.03
2018-06-29T09:56:09.061Z,13.93
2018-06-29T09:58:37.352Z,11.47
2018-06-29T10:01:05.774Z,10.80
2018-06-29T10:03:34.034Z,10.53
2018-06-29T10:06:02.340Z,12.17
2018-06-29T10:08:30.590Z,12.47
2018-06-29T10:10:58.965Z,15.70
2018-06-29T10:13:27.213Z,10.53
2018-06-29T10:15:55.652Z,6.47
2018-06-29T10:18:23.901Z,15.23
2018-06-29T10:20:53.274Z,10.13
2018-06-29T10:23:21.609Z,10.03
2018-06-29T10:25:49.896Z,15.17
2018-06-29T10:28:18.153Z,11.73
2018-06-29T10:30:46.544Z,14.23
2018-06-29T10:33:16.765Z,22.10
2018-06-29T10:35:45.014Z,7.43
2018-06-29T10:38:13.292Z,9.50
2018-06-29T10:40:41.570Z,6.70
2018-06-29T10:43:12.200Z,9.13
2018-06-29T10:45:40.441Z,6.30
2018-06-29T10:48:08.745Z,7.37
2018-06-29T10:50:37.053Z,5.73
2018-06-29T10:53:05.357Z,3.77
2018-06-29T10:55:33.610Z,8.43
2018-06-29T10:58:01.912Z,7.93
2018-06-29T11:00:30.165Z,3.30
2018-06-29T11:02:58.433Z,7.27
2018-06-29T11:05:26.741Z,7.03
2018-06-29T11:07:55.419Z,3.73
2018-06-29T11:10:23.658Z,2.73
2018-06-29T11:13:07.573Z,5.47
2018-06-29T11:15:35.815Z,5.50
2018-06-29T11:18:04.137Z,7.20
2018-06-29T11:20:32.419Z,10.07
2018-06-29T11:23:00.709Z,13.67
2018-06-29T11:25:28.993Z,10.93
2018-06-29T11:27:57.275Z,3.83
2018-06-29T11:30:25.606Z,7.50
2018-06-29T11:32:53.860Z,6.57
2018-06-29T11:35:22.165Z,5.80
2018-06-29T11:37:50.425Z,5.30
2018-06-29T11:40:18.682Z,4.83
2018-06-29T11:42:47.106Z,1.93
2018-06-29T11:45:15.369Z,5.50
2018-06-29T11:47:43.646Z,5.50
2018-06-29T11:50:11.922Z,6.70
2018-06-29T11:52:40.169Z,9.53
2018-06-29T11:55:08.553Z,6.37
2018-06-29T11:57:36.817Z,10.87
2018-06-29T12:00:05.793Z,5.33
2018-06-29T12:02:34.034Z,3.70
2018-06-29T12:05:02.385Z,3.33
2018-06-29T12:07:30.624Z,7.30
2018-06-29T12:09:58.896Z,6.27
2018-06-29T12:12:27.136Z,2.90
2018-06-29T12:14:55.480Z,4.40
2018-06-29T12:17:23.717Z,2.77
2018-06-29T12:19:51.978Z,1.83
2018-06-29T12:22:20.248Z,8.80
2018-06-29T12:24:48.511Z,6.93
2018-06-29T12:27:16.784Z,7.60
2018-06-29T12:29:45.018Z,2.77
2018-06-29T12:32:13.287Z,8.00
2018-06-29T12:34:41.565Z,3.53
2018-06-29T12:37:09.834Z,8.17
2018-06-29T12:39:38.104Z,6.83
2018-06-29T12:42:06.413Z,9.30
2018-06-29T12:44:34.657Z,6.00
2018-06-29T12:47:02.933Z,2.13
2018-06-29T12:49:31.180Z,2.73
2018-06-29T12:51:59.441Z,5.70
2018-06-29T12:54:27.685Z,10.00
2018-06-29T12:56:55.949Z,8.50
2018-06-29T12:59:24.228Z,1.70
2018-06-29T13:01:52.501Z,6.37
2018-06-29T13:04:20.769Z,3.37
2018-06-29T13:06:49.082Z,7.53
2018-06-29T13:09:17.525Z,4.50
2018-06-29T13:11:45.558Z,4.17
2018-06-29T13:14:13.820Z,4.10
2018-06-29T13:16:42.117Z,2.30
2018-06-29T13:19:10.368Z,2.10
2018-06-29T13:21:38.692Z,2.00
2018-06-29T13:24:06.965Z,10.57
2018-06-29T13:26:35.214Z,6.43
2018-06-29T13:29:03.523Z,11.40
2018-06-29T13:31:31.802Z,5.60
2018-06-29T13:34:00.081Z,3.63
2018-06-29T13:36:28.355Z,7.90
2018-06-29T13:38:56.645Z,3.00
2018-06-29T13:41:24.887Z,4.40
2018-06-29T13:43:53.169Z,1.17
2018-06-29T13:46:21.434Z,0.97
2018-06-29T13:48:49.713Z,2.10
2018-06-29T13:51:17.977Z,2.77
2018-06-29T13:53:46.263Z,2.23
2018-06-29T13:56:14.676Z,0.90
2018-06-29T13:58:42.993Z,7.60
2018-06-29T14:01:11.253Z,1.83
2018-06-29T14:03:40.533Z,9.57
2018-06-29T14:06:08.849Z,9.63
2018-06-29T14:08:37.206Z,7.30
2018-06-29T14:11:05.453Z,2.00
2018-06-29T14:13:33.779Z,6.33
2018-06-29T14:16:02.033Z,4.07
2018-06-29T14:18:30.297Z,1.43
2018-06-29T14:20:58.709Z,5.23
2018-06-29T14:23:26.985Z,3.30
2018-06-29T14:25:55.336Z,4.70
2018-06-29T14:28:23.597Z,3.50
2018-06-29T14:30:51.873Z,3.07
2018-06-29T14:33:20.145Z,2.50
2018-06-29T14:35:48.438Z,3.33
2018-06-29T14:38:16.705Z,2.50
2018-06-29T14:40:44.989Z,1.60
2018-06-29T14:43:13.236Z,0.90
2018-06-29T14:45:41.517Z,3.33
2018-06-29T14:48:09.787Z,5.80
2018-06-29T14:50:39.050Z,13.07
2018-06-29T14:55:48.936Z,1.33
2018-06-29T14:58:17.233Z,4.30
2018-06-29T15:00:45.565Z,3.87
2018-06-29T15:03:14.071Z,5.83
2018-06-29T15:05:42.370Z,5.50
2018-06-29T15:08:10.650Z,2.53
2018-06-29T15:10:38.900Z,3.83
2018-06-29T15:13:08.290Z,3.13
2018-06-29T15:15:36.737Z,4.07
2018-06-29T15:18:05.240Z,4.10
2018-06-29T15:20:33.517Z,8.40
2018-06-29T15:23:01.857Z,4.63
2018-06-29T15:25:30.108Z,3.60
2018-06-29T15:27:58.533Z,3.60
2018-06-29T15:30:26.779Z,2.00
2018-06-29T15:32:55.090Z,4.07
2018-06-29T15:35:23.344Z,3.23
2018-06-29T15:37:51.653Z,2.40
2018-06-29T15:40:19.973Z,2.10
2018-06-29T15:42:48.393Z,7.77
2018-06-29T15:45:16.736Z,8.17
2018-06-29T15:47:44.984Z,2.63
2018-06-29T15:50:13.229Z,3.07
2018-06-29T15:52:41.517Z,5.20
2018-06-29T15:55:09.895Z,1.30
2018-06-29T15:57:38.169Z,4.10
2018-06-29T16:00:08.468Z,2.03
2018-06-29T16:02:36.854Z,1.50
2018-06-29T16:05:05.241Z,2.57
2018-06-29T16:07:33.502Z,5.23
2018-06-29T16:10:02.825Z,5.30
2018-06-29T16:12:31.085Z,0.90
2018-06-29T16:14:59.369Z,4.93
2018-06-29T16:17:27.629Z,3.23
2018-06-29T16:19:56.946Z,1.20
2018-06-29T16:22:25.232Z,5.90
2018-06-29T16:24:53.553Z,1.03
2018-06-29T16:27:21.833Z,5.40
2018-06-29T16:29:50.133Z,1.73
2018-06-29T16:32:18.473Z,3.40
2018-06-29T16:34:46.749Z,4.77
2018-06-29T16:37:15.156Z,1.33
2018-06-29T16:39:43.446Z,6.23
2018-06-29T16:42:11.699Z,3.13
2018-06-29T16:44:41.215Z,1.87
2018-06-29T16:47:09.421Z,2.30
2018-06-29T16:49:37.749Z,0.80
2018-06-29T16:52:06.006Z,2.80
2018-06-29T16:54:34.297Z,4.33
2018-06-29T16:57:02.546Z,3.23
2018-06-29T16:59:30.845Z,4.20
2018-06-29T17:01:59.118Z,2.10
2018-06-29T17:04:27.409Z,3.57
2018-06-29T17:06:55.689Z,1.80
2018-06-29T17:09:23.952Z,1.07
2018-06-29T17:11:52.328Z,4.10
2018-06-29T17:14:20.577Z,5.20
2018-06-29T17:16:48.860Z,1.80
2018-06-29T17:19:17.142Z,2.30
2018-06-29T17:21:45.589Z,4.63
2018-06-29T17:24:13.852Z,2.70
2018-06-29T17:26:42.829Z,2.20
2018-06-29T17:29:11.379Z,7.90
2018-06-29T17:31:39.701Z,1.37
2018-06-29T17:34:08.475Z,6.77
2018-06-29T17:36:36.672Z,3.20
2018-06-29T17:39:08.060Z,1.03
2018-06-29T17:41:36.369Z,1.07
2018-06-29T17:44:04.661Z,1.00
2018-06-29T17:46:33.029Z,3.03
2018-06-29T17:49:01.246Z,2.00
2018-06-29T17:51:29.529Z,4.30
2018-06-29T17:53:57.843Z,4.10
2018-06-29T17:56:26.041Z,5.53
2018-06-29T17:58:54.338Z,6.37
2018-06-29T18:01:22.589Z,0.50
2018-06-29T18:03:50.854Z,4.50
2018-06-29T18:06:19.121Z,1.33
2018-06-29T18:08:47.493Z,3.70
2018-06-29T18:11:15.856Z,1.33
2018-06-29T18:13:44.298Z,1.67
2018-06-29T18:16:12.629Z,2.53
2018-06-29T18:18:40.906Z,1.90
2018-06-29T18:21:09.140Z,0.90
2018-06-29T18:23:37.410Z,3.47
2018-06-29T18:26:05.665Z,5.40
2018-06-29T18:28:33.941Z,4.17
2018-06-29T18:31:02.193Z,1.87
2018-06-29T18:33:30.469Z,1.83
2018-06-29T18:35:58.725Z,1.20
2018-06-29T18:38:27.026Z,2.77
2018-06-29T18:40:55.365Z,3.50
2018-06-29T18:43:23.682Z,0.50
2018-06-29T18:45:52.029Z,2.00
2018-06-29T18:48:20.283Z,1.70
2018-06-29T18:50:48.564Z,1.20
2018-06-29T18:53:16.830Z,4.17
2018-06-29T18:55:45.138Z,1.30
2018-06-29T18:58:13.412Z,4.73
2018-06-29T19:00:41.800Z,2.83
2018-06-29T19:03:11.089Z,1.43
2018-06-29T19:05:39.382Z,3.77
2018-06-29T19:08:07.697Z,3.27
2018-06-29T19:10:35.973Z,2.90
2018-06-29T19:13:04.221Z,3.83
2018-06-29T19:15:32.513Z,6.63
2018-06-29T19:18:00.765Z,4.37
2018-06-29T19:20:29.046Z,1.93
2018-06-29T19:22:57.322Z,2.40
2018-06-29T19:25:25.894Z,2.30
2018-06-29T19:27:54.240Z,1.93
2018-06-29T19:30:22.709Z,0.83
2018-06-29T19:32:52.077Z,3.37
2018-06-29T19:35:20.594Z,3.77
2018-06-29T19:37:49.178Z,3.83
2018-06-29T19:40:17.437Z,5.10
2018-06-29T19:42:45.781Z,3.53
2018-06-29T19:45:14.055Z,2.33
2018-06-29T19:47:42.447Z,5.27
2018-06-29T19:50:10.689Z,2.00
2018-06-29T19:52:39.099Z,2.57
2018-06-29T19:55:07.389Z,3.90
2018-06-29T19:57:35.665Z,3.07
2018-06-29T20:00:04.077Z,2.60
2018-06-29T20:02:32.389Z,1.80
2018-06-29T20:05:00.646Z,4.27
2018-06-29T20:07:28.942Z,1.70
2018-06-29T20:09:57.214Z,3.30
2018-06-29T20:12:25.485Z,2.30
2018-06-29T20:14:53.733Z,1.37
2018-06-29T20:17:22.009Z,1.10
2018-06-29T20:19:50.273Z,3.80
2018-06-29T20:22:18.577Z,1.53
2018-06-29T20:24:46.854Z,1.73
2018-06-29T20:27:17.217Z,1.47
2018-06-29T20:29:45.477Z,2.73
2018-06-29T20:32:13.753Z,2.60
2018-06-29T20:34:42.010Z,7.90
2018-06-29T20:37:10.309Z,2.87
2018-06-29T20:39:38.583Z,2.60
2018-06-29T20:42:10.702Z,4.63
2018-06-29T20:44:38.988Z,1.90
2018-06-29T20:47:07.266Z,4.43
2018-06-29T20:49:35.869Z,2.27
2018-06-29T20:52:04.128Z,3.03
2018-06-29T20:54:32.418Z,3.17
2018-06-29T20:57:00.798Z,3.33
2018-06-29T20:59:30.115Z,2.07
2018-06-29T21:01:58.377Z,3.10
2018-06-29T21:04:26.683Z,4.20
2018-06-29T21:06:54.965Z,1.50
2018-06-29T21:09:23.241Z,2.47
2018-06-29T21:11:51.493Z,3.30
2018-06-29T21:14:19.781Z,4.63
2018-06-29T21:16:48.066Z,5.93
2018-06-29T21:19:16.369Z,2.33
2018-06-29T21:21:44.637Z,15.23
2018-06-29T21:24:12.917Z,3.20
2018-06-29T21:26:41.193Z,0.77
2018-06-29T21:29:09.458Z,1.23
2018-06-29T21:31:37.981Z,3.63
2018-06-29T21:34:06.257Z,2.13
2018-06-29T21:36:34.541Z,2.43
2018-06-29T21:39:02.825Z,1.70
2018-06-29T21:41:31.108Z,3.40
2018-06-29T21:43:59.392Z,5.90
2018-06-29T21:46:27.825Z,9.73
2018-06-29T21:48:56.066Z,2.63
2018-06-29T21:51:24.364Z,4.07
2018-06-29T21:53:52.665Z,4.03
2018-06-29T21:56:20.934Z,2.83
2018-06-29T21:58:49.225Z,10.33
2018-06-29T22:01:17.577Z,3.90
2018-06-29T22:03:45.849Z,1.10
2018-06-29T22:06:14.125Z,1.80
2018-06-29T22:08:42.444Z,3.10
2018-06-29T22:11:10.748Z,3.90
2018-06-29T22:13:39.013Z,2.57
2018-06-29T22:16:07.385Z,1.43
2018-06-29T22:18:35.672Z,3.33
2018-06-29T22:21:03.917Z,0.70
2018-06-29T22:23:32.202Z,3.90
2018-06-29T22:26:00.453Z,1.20
2018-06-29T22:28:28.717Z,2.60
2018-06-29T22:30:56.994Z,2.50
2018-06-29T22:33:25.268Z,3.47
2018-06-29T22:35:53.526Z,5.33
2018-06-29T22:38:21.861Z,4.27
2018-06-29T22:40:50.141Z,4.87
2018-06-29T22:43:18.434Z,1.07
2018-06-29T22:45:46.695Z,3.03
2018-06-29T22:48:15.017Z,3.00
2018-06-29T22:50:43.325Z,2.57
2018-06-29T22:53:11.601Z,8.93
2018-06-29T22:55:39.845Z,7.20
2018-06-29T22:58:08.272Z,6.33
2018-06-29T23:00:36.553Z,4.43
2018-06-29T23:03:06.724Z,1.80
2018-06-29T23:05:35.046Z,3.20
2018-06-29T23:08:03.353Z,9.03
2018-06-29T23:10:31.632Z,3.23
2018-06-29T23:12:59.889Z,5.30
2018-06-29T23:15:28.181Z,4.80
2018-06-29T23:17:56.541Z,2.67
2018-06-29T23:20:25.260Z,1.33
2018-06-29T23:22:53.824Z,10.97
2018-06-29T23:25:22.172Z,3.43
2018-06-29T23:27:50.411Z,8.90
2018-06-29T23:30:18.710Z,2.40
2018-06-29T23:32:46.969Z,2.90
2018-06-29T23:35:15.262Z,3.53
2018-06-29T23:37:43.513Z,3.47
2018-06-29T23:40:11.814Z,3.33
2018-06-29T23:42:41.026Z,1.47
2018-06-29T23:45:09.331Z,1.77
2018-06-29T23:47:37.775Z,1.70
2018-06-29T23:50:06.256Z,1.40
2018-06-29T23:52:34.590Z,2.10
2018-06-29T23:55:03.053Z,6.87
2018-06-29T23:57:32.382Z,7.87
